createdAt,value
2023-05-08T00:02:04.035Z,15.90
2023-05-08T00:07:08.627Z,15.80
2023-05-08T00:12:17.111Z,15.80
2023-05-08T00:17:25.894Z,15.70
2023-05-08T00:22:43.157Z,15.70
2023-05-08T00:27:45.254Z,15.70
2023-05-08T00:32:48.321Z,15.60
2023-05-08T00:38:01.428Z,15.60
2023-05-08T00:43:06.830Z,15.50
2023-05-08T00:48:09.255Z,15.60
2023-05-08T00:53:31.259Z,15.60
2023-05-08T00:58:39.838Z,15.60
2023-05-08T01:03:57.991Z,15.70
2023-05-08T01:09:04.432Z,15.70
2023-05-08T01:14:27.110Z,15.70
2023-05-08T01:19:59.607Z,15.80
2023-05-08T01:25:33.490Z,15.80
2023-05-08T01:31:20.297Z,15.80
2023-05-08T01:36:34.412Z,15.80
2023-05-08T01:41:39.846Z,15.80
2023-05-08T01:46:45.169Z,15.90
2023-05-08T01:52:09.248Z,15.80
2023-05-08T01:57:20.548Z,15.90
2023-05-08T02:02:27.161Z,15.80
2023-05-08T02:07:29.598Z,15.90
2023-05-08T02:12:38.714Z,15.90
2023-05-08T02:17:44.474Z,15.80
2023-05-08T02:22:50.083Z,15.80
2023-05-08T02:27:56.826Z,15.80
2023-05-08T02:33:03.907Z,15.70
2023-05-08T02:38:14.674Z,15.70
2023-05-08T02:43:28.244Z,15.70
2023-05-08T02:48:59.693Z,15.60
2023-05-08T02:54:18.296Z,15.60
2023-05-08T02:59:45.445Z,15.50
2023-05-08T03:05:02.070Z,15.50
2023-05-08T03:10:24.965Z,15.40
2023-05-08T03:15:54.700Z,15.40
2023-05-08T03:21:19.402Z,15.40
2023-05-08T03:26:34.468Z,15.40
2023-05-08T03:31:45.014Z,15.40
2023-05-08T03:36:51.980Z,15.30
2023-05-08T03:42:05.104Z,15.30
2023-05-08T03:47:24.334Z,15.20
2023-05-08T03:52:36.582Z,15.10
2023-05-08T03:58:09.098Z,15.10
2023-05-08T04:03:40.604Z,15.00
2023-05-08T04:09:22.041Z,15.00
2023-05-08T04:14:45.772Z,14.90
2023-05-08T04:20:02.595Z,14.90
2023-05-08T04:25:12.165Z,14.90
2023-05-08T04:30:23.088Z,14.90
2023-05-08T04:35:52.304Z,14.90
2023-05-08T04:40:58.400Z,14.90
2023-05-08T04:46:14.568Z,14.90
2023-05-08T04:51:20.622Z,14.80
2023-05-08T04:56:25.353Z,14.70
2023-05-08T05:01:47.147Z,14.60
2023-05-08T05:07:02.831Z,14.60
2023-05-08T05:12:07.618Z,14.60
2023-05-08T05:17:09.652Z,14.60
2023-05-08T05:22:11.586Z,14.70
2023-05-08T05:27:13.602Z,14.60
2023-05-08T05:32:15.482Z,14.70
2023-05-08T05:37:17.597Z,14.70
2023-05-08T05:42:19.440Z,14.80
2023-05-08T05:47:21.336Z,14.90
2023-05-08T05:52:23.224Z,15.00
2023-05-08T05:57:24.988Z,15.00
2023-05-08T06:02:26.836Z,15.10
2023-05-08T06:07:28.759Z,15.20
2023-05-08T06:12:31.207Z,15.20
2023-05-08T06:17:33.117Z,15.30
2023-05-08T06:22:35.193Z,15.40
2023-05-08T06:27:37.082Z,15.50
2023-05-08T06:32:39.145Z,15.60
2023-05-08T06:37:41.277Z,15.70
2023-05-08T06:42:43.110Z,15.70
2023-05-08T06:47:45.012Z,15.80
2023-05-08T06:52:46.843Z,15.90
2023-05-08T06:57:48.677Z,16.00
2023-05-08T07:02:50.641Z,16.00
2023-05-08T07:07:54.182Z,16.10
2023-05-08T07:12:56.340Z,16.20
2023-05-08T07:17:58.494Z,16.30
2023-05-08T07:23:00.419Z,16.40
2023-05-08T07:28:02.330Z,16.50
2023-05-08T07:33:04.217Z,16.60
2023-05-08T07:38:06.248Z,16.70
2023-05-08T07:43:08.220Z,16.80
2023-05-08T07:48:10.184Z,16.80
2023-05-08T07:53:12.101Z,16.80
2023-05-08T07:58:14.531Z,16.90
2023-05-08T08:03:17.438Z,16.90
2023-05-08T08:08:19.390Z,17.10
2023-05-08T08:13:21.321Z,17.20
2023-05-08T08:18:23.178Z,17.30
2023-05-08T08:23:25.050Z,17.40
2023-05-08T08:28:26.883Z,17.40
2023-05-08T08:33:29.613Z,17.50
2023-05-08T08:38:31.503Z,17.60
2023-05-08T08:43:33.528Z,17.70
2023-05-08T08:48:35.504Z,17.80
2023-05-08T08:53:43.484Z,17.90
2023-05-08T08:58:51.141Z,18.00
2023-05-08T09:03:53.184Z,18.00
2023-05-08T09:08:58.798Z,18.10
2023-05-08T09:14:00.640Z,18.10
2023-05-08T09:19:04.597Z,18.30
2023-05-08T09:24:06.759Z,18.50
2023-05-08T09:29:13.423Z,18.60
2023-05-08T09:34:29.679Z,18.60
2023-05-08T09:39:31.769Z,18.60
2023-05-08T09:44:54.111Z,18.70
2023-05-08T09:50:03.345Z,18.60
2023-05-08T09:55:08.055Z,18.70
2023-05-08T10:00:12.404Z,18.80
2023-05-08T10:05:30.230Z,18.90
2023-05-08T10:10:32.251Z,19.10
2023-05-08T10:15:34.403Z,19.30
2023-05-08T10:20:42.452Z,19.50
2023-05-08T10:25:49.209Z,19.70
2023-05-08T10:30:52.234Z,20.00
2023-05-08T10:35:54.212Z,20.30
2023-05-08T10:40:58.311Z,20.40
2023-05-08T10:46:11.829Z,20.60
2023-05-08T10:51:38.964Z,20.80
2023-05-08T10:56:40.904Z,20.80
2023-05-08T11:01:43.761Z,20.90
2023-05-08T11:06:47.132Z,21.00
2023-05-08T11:12:05.960Z,21.10
2023-05-08T11:17:09.995Z,21.00
2023-05-08T11:22:15.576Z,21.00
2023-05-08T11:27:17.661Z,21.00
2023-05-08T11:32:19.531Z,21.00
2023-05-08T11:37:24.149Z,21.00
2023-05-08T11:42:27.009Z,20.90
2023-05-08T11:47:37.840Z,21.00
2023-05-08T11:52:41.154Z,21.10
2023-05-08T11:57:43.005Z,21.30
2023-05-08T12:02:47.733Z,21.50
2023-05-08T12:07:49.598Z,21.80
2023-05-08T12:12:51.530Z,21.90
2023-05-08T12:18:05.276Z,21.80
2023-05-08T12:23:07.271Z,21.80
2023-05-08T12:28:11.129Z,21.80
2023-05-08T12:33:13.142Z,21.80
2023-05-08T12:38:17.142Z,21.80
2023-05-08T12:43:18.957Z,22.20
2023-05-08T12:48:20.993Z,22.50
2023-05-08T12:53:23.317Z,23.00
2023-05-08T12:58:27.525Z,23.20
2023-05-08T13:03:30.488Z,23.20
2023-05-08T13:08:34.339Z,23.40
2023-05-08T13:13:37.231Z,23.50
2023-05-08T13:18:39.113Z,23.50
2023-05-08T13:23:43.348Z,23.60
2023-05-08T13:28:45.257Z,23.50
2023-05-08T13:33:47.085Z,23.50
2023-05-08T13:38:49.165Z,23.80
2023-05-08T13:43:51.225Z,23.90
2023-05-08T13:48:53.235Z,23.90
2023-05-08T13:53:55.052Z,24.30
2023-05-08T13:58:56.887Z,24.50
2023-05-08T14:03:58.806Z,24.70
2023-05-08T14:09:00.735Z,24.90
2023-05-08T14:14:02.591Z,25.10
2023-05-08T14:19:04.419Z,25.10
2023-05-08T14:24:06.388Z,25.20
2023-05-08T14:29:08.271Z,25.00
2023-05-08T14:34:10.096Z,24.90
2023-05-08T14:39:12.048Z,24.70
2023-05-08T14:44:13.905Z,24.60
2023-05-08T14:49:22.246Z,24.40
2023-05-08T14:54:31.105Z,24.20
2023-05-08T14:59:33.117Z,23.90
2023-05-08T15:04:35.987Z,23.80
2023-05-08T15:09:37.797Z,23.60
2023-05-08T15:14:39.595Z,23.40
2023-05-08T15:19:42.475Z,23.30
2023-05-08T15:24:44.335Z,23.10
2023-05-08T15:29:46.219Z,23.00
2023-05-08T15:34:48.328Z,22.90
2023-05-08T15:39:50.312Z,22.70
2023-05-08T15:44:56.887Z,22.50
2023-05-08T15:49:58.697Z,22.30
2023-05-08T15:55:01.005Z,22.20
2023-05-08T16:00:03.012Z,22.20
2023-05-08T16:05:05.375Z,22.00
2023-05-08T16:10:08.156Z,22.00
2023-05-08T16:15:10.326Z,21.90
2023-05-08T16:20:12.519Z,21.90
2023-05-08T16:25:14.563Z,22.00
2023-05-08T16:30:17.327Z,22.20
2023-05-08T16:35:19.720Z,22.10
2023-05-08T16:40:21.675Z,22.10
2023-05-08T16:45:23.607Z,21.90
2023-05-08T16:50:25.483Z,21.80
2023-05-08T16:55:27.441Z,21.70
2023-05-08T17:00:29.240Z,21.40
2023-05-08T17:05:31.126Z,21.20
2023-05-08T17:10:32.971Z,21.00
2023-05-08T17:15:34.870Z,20.80
2023-05-08T17:20:40.843Z,20.60
2023-05-08T17:25:42.902Z,20.50
2023-05-08T17:30:46.386Z,20.30
2023-05-08T17:35:48.420Z,20.20
2023-05-08T17:40:50.305Z,20.00
2023-05-08T17:45:52.239Z,19.90
2023-05-08T17:50:54.154Z,19.80
2023-05-08T17:55:56.391Z,19.70
2023-05-08T18:00:58.317Z,19.50
2023-05-08T18:06:00.174Z,19.30
2023-05-08T18:11:02.104Z,19.20
2023-05-08T18:16:04.147Z,19.00
2023-05-08T18:21:06.017Z,18.90
2023-05-08T18:26:07.827Z,18.80
2023-05-08T18:31:09.789Z,18.70
2023-05-08T18:36:11.949Z,18.60
2023-05-08T18:41:13.913Z,18.60
2023-05-08T18:46:17.396Z,18.50
2023-05-08T18:51:19.459Z,18.50
2023-05-08T18:56:22.243Z,18.40
2023-05-08T19:01:24.119Z,18.30
2023-05-08T19:06:26.071Z,18.20
2023-05-08T19:11:30.877Z,18.10
2023-05-08T19:16:32.884Z,18.10
2023-05-08T19:21:35.207Z,18.00
2023-05-08T19:26:37.154Z,17.90
2023-05-08T19:31:39.137Z,17.70
2023-05-08T19:36:41.786Z,17.60
2023-05-08T19:41:43.959Z,17.60
2023-05-08T19:46:45.951Z,17.50
2023-05-08T19:51:52.006Z,17.40
2023-05-08T19:56:57.818Z,17.30
2023-05-08T20:02:33.112Z,17.30
2023-05-08T20:08:14.592Z,17.20
2023-05-08T20:13:55.266Z,17.20
2023-05-08T20:24:30.061Z,17.10
2023-05-08T20:29:52.743Z,17.10
2023-05-08T20:35:03.326Z,17.10
2023-05-08T20:40:26.802Z,17.00
2023-05-08T20:45:34.875Z,17.00
2023-05-08T20:50:42.678Z,17.00
2023-05-08T20:55:55.369Z,16.90
2023-05-08T21:01:04.476Z,16.90
2023-05-08T21:06:08.636Z,16.90
2023-05-08T21:11:20.381Z,16.90
2023-05-08T21:16:28.147Z,16.80
2023-05-08T21:21:32.674Z,16.80
2023-05-08T21:26:45.073Z,16.70
2023-05-08T21:31:47.282Z,16.70
2023-05-08T21:36:50.775Z,16.70
2023-05-08T21:42:06.741Z,16.70
2023-05-08T21:47:13.626Z,16.70
2023-05-08T21:52:18.432Z,16.60
2023-05-08T21:57:24.987Z,16.70
2023-05-08T22:02:30.672Z,16.60
2023-05-08T22:07:43.257Z,16.60
2023-05-08T22:12:45.542Z,16.60
2023-05-08T22:17:58.114Z,16.60
2023-05-08T22:23:06.156Z,16.60
2023-05-08T22:28:09.623Z,16.60
2023-05-08T22:33:50.425Z,16.50
2023-05-08T22:38:44.214Z,16.50
2023-05-08T22:43:58.742Z,16.40
2023-05-08T22:49:01.173Z,16.30
2023-05-08T22:54:06.577Z,16.30
2023-05-08T22:59:17.649Z,16.30
2023-05-08T23:04:20.070Z,16.20
2023-05-08T23:09:24.576Z,16.20
2023-05-08T23:14:34.846Z,16.10
2023-05-08T23:19:38.397Z,16.10
2023-05-08T23:24:56.795Z,16.10
2023-05-08T23:30:04.241Z,16.10
2023-05-08T23:35:10.188Z,16.10
2023-05-08T23:40:15.297Z,16.10
2023-05-08T23:45:27.203Z,16.10
2023-05-08T23:50:34.464Z,16.00
2023-05-08T23:55:37.667Z,16.00
